Paisaje, Colorado
Current Conditions -  °F | °C
As of 2:52 AM on Sunday 23 Nov 2014 (Local Time) from KALS Reporting Station
Broken Clouds Broken Clouds  
Wind Chill: 12°   Ceiling: 7000
Heat Index: 20°   Visibility: 10mi
Dew Point: 14°   Wind: 6mph
Humidity: 78%   Direction: 70°ENE
Pressure: 29.7"   Gusts: NA
Location:  37.1816°N, 106.262°W
Report Text: KALS 230952Z AUTO 07005KT 10SM BKN070 M07/M10 A2970 RMK AO2 SLP042 T10671100
Loading
Personal Weather Stations






























Interactive Weather Map New forecast layout! Learn more

10-Day Weather Forecast

Advertisements
Track Severe Weather on mobile